createdAt,value
2023-01-22T00:01:10.254Z,19.88
2023-01-22T00:03:37.251Z,18.75
2023-01-22T00:06:04.306Z,10.43
2023-01-22T00:08:31.294Z,11.93
2023-01-22T00:10:58.194Z,13.43
2023-01-22T00:13:25.618Z,15.20
2023-01-22T00:15:54.928Z,9.60
2023-01-22T00:18:21.843Z,13.35
2023-01-22T00:20:53.270Z,11.02
2023-01-22T00:23:20.519Z,10.35
2023-01-22T00:25:47.410Z,19.17
2023-01-22T00:28:14.328Z,11.75
2023-01-22T00:30:41.291Z,11.60
2023-01-22T00:33:08.543Z,15.45
2023-01-22T00:35:35.743Z,12.32
2023-01-22T00:38:02.750Z,13.82
2023-01-22T00:40:29.542Z,15.07
2023-01-22T00:42:56.387Z,13.85
2023-01-22T00:45:23.249Z,14.60
2023-01-22T00:47:50.992Z,13.10
2023-01-22T00:50:18.039Z,11.70
2023-01-22T00:52:45.325Z,10.07
2023-01-22T00:55:12.182Z,11.90
2023-01-22T00:57:39.523Z,12.38
2023-01-22T01:00:09.094Z,11.90
2023-01-22T01:02:59.163Z,10.85
2023-01-22T01:05:26.502Z,12.55
2023-01-22T01:07:53.403Z,13.68
2023-01-22T01:10:20.710Z,11.38
2023-01-22T01:12:47.650Z,14.00
2023-01-22T01:15:17.300Z,14.05
2023-01-22T01:17:46.259Z,9.95
2023-01-22T01:20:13.377Z,12.23
2023-01-22T01:22:40.198Z,14.23
2023-01-22T01:25:07.103Z,18.52
2023-01-22T01:27:33.972Z,9.73
2023-01-22T01:30:00.989Z,14.13
2023-01-22T01:32:27.844Z,14.40
2023-01-22T01:34:54.617Z,10.88
2023-01-22T01:37:22.480Z,10.98
2023-01-22T01:39:52.537Z,25.30
2023-01-22T01:42:26.519Z,19.48
2023-01-22T01:45:12.037Z,12.73
2023-01-22T01:47:39.672Z,14.52
2023-01-22T01:50:06.907Z,15.43
2023-01-22T01:52:33.653Z,12.27
2023-01-22T01:55:00.895Z,13.93
2023-01-22T01:57:28.821Z,10.68
2023-01-22T01:59:58.138Z,15.15
2023-01-22T02:02:25.149Z,18.25
2023-01-22T02:04:53.803Z,15.57
2023-01-22T02:07:21.023Z,26.90
2023-01-22T02:09:47.886Z,11.45
2023-01-22T02:12:14.988Z,13.02
2023-01-22T02:14:43.028Z,13.07
2023-01-22T02:17:11.630Z,10.15
2023-01-22T02:19:39.061Z,13.02
2023-01-22T02:22:19.395Z,11.70
2023-01-22T02:24:47.098Z,12.23
2023-01-22T02:27:13.831Z,9.60
2023-01-22T02:29:40.676Z,12.15
2023-01-22T02:32:09.907Z,8.60
2023-01-22T02:34:37.710Z,9.68
2023-01-22T02:37:04.727Z,10.77
2023-01-22T02:39:32.348Z,9.38
2023-01-22T02:42:02.349Z,8.98
2023-01-22T02:44:29.619Z,10.90
2023-01-22T02:46:56.377Z,19.08
2023-01-22T02:49:23.344Z,9.25
2023-01-22T02:51:50.873Z,9.27
2023-01-22T02:54:18.937Z,14.88
2023-01-22T02:56:45.761Z,12.07
2023-01-22T02:59:12.782Z,9.73
2023-01-22T03:01:40.060Z,17.30
2023-01-22T03:04:12.864Z,10.50
2023-01-22T03:06:42.771Z,11.50
2023-01-22T03:09:10.589Z,13.80
2023-01-22T03:11:38.716Z,14.93
2023-01-22T03:14:28.504Z,14.18
2023-01-22T03:17:14.116Z,10.35
2023-01-22T03:19:59.790Z,11.70
2023-01-22T03:22:26.738Z,10.55
2023-01-22T03:24:53.807Z,11.00
2023-01-22T03:27:25.189Z,13.32
2023-01-22T03:29:52.985Z,11.95
2023-01-22T03:32:20.427Z,11.88
2023-01-22T03:34:47.452Z,11.68
2023-01-22T03:37:15.324Z,11.50
2023-01-22T03:39:44.673Z,12.70
2023-01-22T03:44:45.454Z,8.68
2023-01-22T03:47:12.870Z,14.05
2023-01-22T03:49:39.705Z,10.65
2023-01-22T03:52:06.744Z,14.35
2023-01-22T03:54:33.929Z,10.48
2023-01-22T03:57:04.191Z,11.20
2023-01-22T03:59:34.337Z,13.10
2023-01-22T04:02:01.188Z,10.07
2023-01-22T04:04:29.583Z,10.77
2023-01-22T04:06:56.384Z,10.20
2023-01-22T04:09:23.304Z,12.15
2023-01-22T04:11:50.527Z,12.13
2023-01-22T04:14:18.566Z,11.45
2023-01-22T04:17:01.698Z,14.32
2023-01-22T04:19:49.541Z,8.05
2023-01-22T04:22:34.986Z,16.45
2023-01-22T04:25:02.475Z,12.35
2023-01-22T04:27:31.358Z,18.88
2023-01-22T04:29:58.570Z,9.93
2023-01-22T04:32:25.344Z,12.82
2023-01-22T04:35:10.854Z,11.25
2023-01-22T04:37:44.563Z,13.10
2023-01-22T04:40:11.710Z,17.48
2023-01-22T04:42:38.728Z,9.00
2023-01-22T04:45:05.795Z,9.20
2023-01-22T04:47:33.636Z,9.77
2023-01-22T04:50:00.554Z,11.75
2023-01-22T04:52:27.412Z,11.93
2023-01-22T04:54:55.135Z,10.80
2023-01-22T04:57:25.341Z,10.95
2023-01-22T04:59:52.425Z,9.85
2023-01-22T05:02:19.569Z,13.07
2023-01-22T05:04:46.705Z,10.98
2023-01-22T05:07:13.454Z,12.60
2023-01-22T05:09:40.407Z,12.57
2023-01-22T05:12:09.320Z,16.08
2023-01-22T05:14:40.664Z,12.63
2023-01-22T05:17:08.227Z,13.15
2023-01-22T05:19:35.731Z,15.68
2023-01-22T05:22:07.261Z,17.58
2023-01-22T05:24:34.354Z,14.98
2023-01-22T05:27:04.478Z,11.50
2023-01-22T05:29:40.045Z,11.70
2023-01-22T05:32:18.464Z,12.45
2023-01-22T05:34:52.110Z,18.92
2023-01-22T05:37:19.017Z,11.60
2023-01-22T05:39:48.935Z,12.23
2023-01-22T05:42:17.630Z,13.75
2023-01-22T05:44:48.885Z,13.20
2023-01-22T05:47:19.568Z,10.07
2023-01-22T05:50:08.543Z,17.20
2023-01-22T05:52:35.727Z,11.55
2023-01-22T05:55:02.572Z,13.45
2023-01-22T06:00:05.687Z,12.80
2023-01-22T06:02:43.484Z,11.57
2023-01-22T06:05:12.499Z,13.55
2023-01-22T06:07:40.311Z,13.23
2023-01-22T06:10:07.316Z,14.27
2023-01-22T06:12:40.784Z,18.05
2023-01-22T06:15:07.858Z,16.30
2023-01-22T06:17:35.280Z,13.50
2023-01-22T06:20:02.770Z,11.70
2023-01-22T06:22:30.085Z,12.98
2023-01-22T06:25:00.802Z,12.32
2023-01-22T06:27:43.113Z,11.57
2023-01-22T06:30:10.304Z,12.27
2023-01-22T06:32:37.340Z,24.67
2023-01-22T06:35:04.403Z,11.82
2023-01-22T06:37:31.354Z,14.55
2023-01-22T06:40:01.809Z,19.02
2023-01-22T06:42:41.021Z,15.02
2023-01-22T06:45:08.309Z,12.63
2023-01-22T06:47:36.854Z,16.08
2023-01-22T06:50:03.876Z,17.23
2023-01-22T06:52:30.749Z,20.40
2023-01-22T06:54:57.870Z,16.67
2023-01-22T06:57:26.303Z,20.20
2023-01-22T06:59:53.788Z,12.43
2023-01-22T07:02:20.709Z,17.17
2023-01-22T07:04:47.576Z,15.65
2023-01-22T07:07:14.873Z,20.50
2023-01-22T07:09:41.772Z,15.05
2023-01-22T07:12:10.870Z,12.90
2023-01-22T07:14:37.954Z,14.73
2023-01-22T07:17:04.987Z,13.48
2023-01-22T07:19:31.856Z,14.15
2023-01-22T07:21:58.895Z,13.68
2023-01-22T07:24:25.737Z,13.90
2023-01-22T07:26:52.570Z,13.40
2023-01-22T07:29:19.420Z,16.92
2023-01-22T07:31:49.529Z,15.93
2023-01-22T07:34:16.749Z,15.05
2023-01-22T07:36:43.661Z,15.40
2023-01-22T07:39:10.541Z,17.27
2023-01-22T07:41:37.542Z,15.57
2023-01-22T07:44:11.216Z,25.80
2023-01-22T07:46:39.164Z,17.35
2023-01-22T07:49:06.299Z,17.42
2023-01-22T07:51:33.224Z,18.65
2023-01-22T07:54:00.059Z,16.30
2023-01-22T07:56:26.876Z,16.80
2023-01-22T07:58:53.889Z,23.30
2023-01-22T08:01:20.767Z,20.15
2023-01-22T08:03:47.850Z,20.85
2023-01-22T08:06:17.470Z,21.05
2023-01-22T08:08:44.493Z,22.65
2023-01-22T08:11:11.438Z,17.35
2023-01-22T08:13:38.230Z,19.13
2023-01-22T08:16:05.179Z,39.67
2023-01-22T08:18:31.988Z,38.40
2023-01-22T08:21:01.699Z,28.70
2023-01-22T08:23:28.768Z,21.23
2023-01-22T08:25:59.743Z,22.33
2023-01-22T08:28:26.920Z,27.45
2023-01-22T08:30:56.994Z,23.95
2023-01-22T08:33:23.837Z,17.60
2023-01-22T08:35:53.362Z,17.20
2023-01-22T08:38:20.304Z,19.33
2023-01-22T08:40:50.785Z,21.95
2023-01-22T08:43:18.062Z,19.20
2023-01-22T08:45:47.492Z,21.48
2023-01-22T08:48:14.301Z,36.90
2023-01-22T08:50:41.124Z,44.25
2023-01-22T08:53:08.058Z,50.28
2023-01-22T08:55:34.995Z,65.55
2023-01-22T08:58:02.547Z,52.80
2023-01-22T09:00:31.855Z,32.70
2023-01-22T09:02:59.894Z,25.75
2023-01-22T09:05:27.331Z,26.90
2023-01-22T09:07:54.235Z,43.88
2023-01-22T09:10:22.547Z,31.85
2023-01-22T09:12:49.549Z,34.67
2023-01-22T09:15:16.471Z,28.13
2023-01-22T09:17:43.368Z,25.00
2023-01-22T09:20:10.560Z,26.02
2023-01-22T09:22:39.643Z,20.80
2023-01-22T09:25:07.336Z,18.42
2023-01-22T09:27:34.416Z,22.30
2023-01-22T09:30:01.304Z,25.95
2023-01-22T09:32:28.122Z,18.90
2023-01-22T09:34:55.067Z,19.65
2023-01-22T09:37:22.011Z,20.90
2023-01-22T09:39:49.624Z,25.58
2023-01-22T09:42:37.263Z,29.48
2023-01-22T09:45:07.213Z,28.27
2023-01-22T09:47:36.553Z,29.42
2023-01-22T09:50:15.968Z,51.00
2023-01-22T09:52:43.317Z,30.00
2023-01-22T09:55:14.024Z,23.38
2023-01-22T09:57:46.400Z,31.65
2023-01-22T10:00:19.495Z,30.17
2023-01-22T10:02:55.462Z,22.13
2023-01-22T10:05:36.056Z,47.95
2023-01-22T10:08:11.991Z,8.82
2023-01-22T10:10:41.529Z,11.40
2023-01-22T10:13:12.025Z,15.82
2023-01-22T10:15:38.967Z,15.27
2023-01-22T10:18:13.127Z,7.97
2023-01-22T10:20:47.499Z,19.88
2023-01-22T10:23:17.699Z,32.25
2023-01-22T10:25:46.053Z,28.75
2023-01-22T10:28:14.444Z,22.48
2023-01-22T10:30:45.724Z,8.90
2023-01-22T10:33:16.450Z,17.35
2023-01-22T10:35:46.643Z,15.40
2023-01-22T10:38:23.968Z,17.90
2023-01-22T10:40:57.502Z,39.58
2023-01-22T10:43:31.993Z,25.50
2023-01-22T10:46:05.013Z,35.28
2023-01-22T10:48:32.340Z,12.15
2023-01-22T10:51:01.192Z,8.80
2023-01-22T10:53:32.819Z,17.58
2023-01-22T10:56:01.204Z,19.25
2023-01-22T10:58:33.678Z,17.35
2023-01-22T11:01:09.416Z,21.40
2023-01-22T11:03:37.647Z,21.88
2023-01-22T11:06:12.991Z,15.27
2023-01-22T11:08:44.758Z,12.98
2023-01-22T11:11:12.887Z,17.73
2023-01-22T11:13:49.163Z,10.52
2023-01-22T11:16:20.762Z,14.52
2023-01-22T11:19:03.463Z,27.83
2023-01-22T11:21:32.432Z,9.57
2023-01-22T11:24:03.130Z,23.00
2023-01-22T11:26:30.013Z,16.70
2023-01-22T11:29:15.360Z,15.55
2023-01-22T11:31:57.569Z,19.13
2023-01-22T11:34:41.641Z,12.43
2023-01-22T11:37:16.873Z,19.75
2023-01-22T11:39:53.786Z,17.50
2023-01-22T11:42:31.159Z,32.67
2023-01-22T11:45:07.379Z,13.38
2023-01-22T11:47:49.900Z,21.92
2023-01-22T11:50:27.429Z,11.32
2023-01-22T11:53:05.480Z,10.98
2023-01-22T11:55:32.197Z,16.05
2023-01-22T11:57:59.483Z,18.95
2023-01-22T12:02:29.235Z,14.75
2023-01-22T12:04:16.041Z,16.80
2023-01-22T12:07:08.837Z,17.15
2023-01-22T12:09:48.220Z,11.82
2023-01-22T12:12:23.257Z,13.48
2023-01-22T12:14:53.005Z,11.23
2023-01-22T12:17:38.137Z,9.65
2023-01-22T12:20:05.064Z,13.02
2023-01-22T12:22:32.517Z,10.20
2023-01-22T12:25:02.477Z,15.68
2023-01-22T12:27:32.468Z,13.57
2023-01-22T12:30:04.843Z,11.63
2023-01-22T12:32:33.949Z,15.63
2023-01-22T12:35:06.121Z,15.35
2023-01-22T12:37:39.928Z,13.27
2023-01-22T12:42:41.667Z,13.23
2023-01-22T12:45:21.131Z,9.05
2023-01-22T12:47:58.603Z,13.13
2023-01-22T12:50:26.852Z,11.23
2023-01-22T12:53:21.293Z,18.23
2023-01-22T12:55:58.342Z,15.32
2023-01-22T12:58:27.769Z,10.60
2023-01-22T13:01:04.381Z,8.18
2023-01-22T13:03:32.699Z,21.45
2023-01-22T13:06:01.227Z,15.75
2023-01-22T13:08:38.831Z,8.75
2023-01-22T13:11:07.393Z,12.95
2023-01-22T13:13:37.248Z,12.15
2023-01-22T13:16:05.757Z,12.90
2023-01-22T13:18:41.982Z,13.40
2023-01-22T13:21:12.571Z,18.13
2023-01-22T13:23:46.534Z,11.43
2023-01-22T13:26:23.967Z,26.42
2023-01-22T13:28:55.727Z,11.98
2023-01-22T13:31:23.017Z,12.15
2023-01-22T13:34:13.227Z,12.48
2023-01-22T13:36:45.337Z,10.35
2023-01-22T13:39:17.355Z,12.43
2023-01-22T13:41:47.446Z,10.15
2023-01-22T13:44:19.032Z,13.82
2023-01-22T13:46:45.964Z,11.55
2023-01-22T13:49:24.505Z,25.77
2023-01-22T13:51:51.526Z,10.52
2023-01-22T13:54:21.325Z,13.40
2023-01-22T13:56:48.316Z,13.00
2023-01-22T13:59:18.443Z,16.88
2023-01-22T14:01:45.873Z,14.65
2023-01-22T14:04:31.800Z,18.73
2023-01-22T14:06:58.629Z,11.77
2023-01-22T14:09:26.750Z,10.85
2023-01-22T14:11:53.714Z,26.88
2023-01-22T14:14:20.594Z,12.07
2023-01-22T14:16:49.816Z,23.55
2023-01-22T14:19:17.666Z,14.07
2023-01-22T14:21:44.652Z,8.60
2023-01-22T14:24:11.559Z,11.32
2023-01-22T14:26:40.871Z,15.30
2023-01-22T14:29:07.796Z,12.05
2023-01-22T14:31:34.624Z,11.00
2023-01-22T14:34:11.107Z,18.50
2023-01-22T14:36:40.514Z,9.40
2023-01-22T14:39:07.226Z,16.00
2023-01-22T14:41:46.047Z,9.70
2023-01-22T14:44:20.428Z,9.70
2023-01-22T14:47:17.452Z,24.30
2023-01-22T14:49:44.270Z,25.95
2023-01-22T14:52:20.998Z,21.00
2023-01-22T14:55:03.556Z,15.95
2023-01-22T14:57:32.257Z,27.70
2023-01-22T15:00:03.198Z,28.50
2023-01-22T15:02:30.335Z,25.55
2023-01-22T15:04:57.269Z,19.40
2023-01-22T15:10:40.995Z,28.05
2023-01-22T15:14:26.153Z,21.70
2023-01-22T15:17:29.942Z,14.77
2023-01-22T15:23:27.824Z,24.20
2023-01-22T15:25:33.748Z,14.35
2023-01-22T15:31:11.426Z,21.90
2023-01-22T15:33:51.043Z,16.60
2023-01-22T15:36:17.913Z,12.07
2023-01-22T15:38:57.794Z,12.15
2023-01-22T15:44:39.335Z,24.85
2023-01-22T15:47:54.939Z,12.95
2023-01-22T15:53:17.867Z,32.80
2023-01-22T15:56:09.483Z,26.13
2023-01-22T15:58:36.369Z,27.55
2023-01-22T16:01:06.983Z,31.27
2023-01-22T16:03:34.020Z,60.55
2023-01-22T16:06:14.645Z,46.92
2023-01-22T16:09:09.400Z,35.38
2023-01-22T16:11:57.448Z,26.10
2023-01-22T16:14:29.219Z,24.95
2023-01-22T16:16:56.303Z,23.88
2023-01-22T16:19:23.171Z,18.42
2023-01-22T16:22:14.672Z,19.33
2023-01-22T16:24:40.062Z,20.10
2023-01-22T16:27:06.859Z,21.80
2023-01-22T16:30:36.653Z,15.40
2023-01-22T16:34:04.576Z,21.33
2023-01-22T16:37:06.590Z,22.55
2023-01-22T16:39:36.907Z,16.73
2023-01-22T16:42:14.465Z,13.38
2023-01-22T16:44:55.641Z,20.02
2023-01-22T16:49:50.345Z,32.15
2023-01-22T16:52:22.844Z,25.83
2023-01-22T16:55:47.568Z,24.88
2023-01-22T16:58:06.969Z,25.23
2023-01-22T17:00:34.238Z,20.92
2023-01-22T17:04:01.206Z,25.48
2023-01-22T17:06:25.701Z,16.90
2023-01-22T17:08:52.766Z,16.45
2023-01-22T17:14:35.780Z,12.60
2023-01-22T17:17:02.765Z,19.67
2023-01-22T17:19:29.604Z,23.75
2023-01-22T17:21:58.971Z,22.77
2023-01-22T17:24:27.178Z,20.58
2023-01-22T17:26:54.653Z,23.52
2023-01-22T17:29:22.049Z,23.15
2023-01-22T17:31:49.193Z,19.75
2023-01-22T17:34:16.609Z,22.73
2023-01-22T17:36:43.436Z,29.27
2023-01-22T17:39:14.498Z,28.83
2023-01-22T17:41:41.638Z,24.35
2023-01-22T17:44:08.589Z,21.15
2023-01-22T17:46:35.987Z,19.95
2023-01-22T17:49:04.659Z,39.10
2023-01-22T17:51:33.214Z,44.15
2023-01-22T17:54:02.141Z,48.78
2023-01-22T17:56:33.271Z,19.98
2023-01-22T17:59:01.555Z,14.35
2023-01-22T18:01:30.301Z,22.45
2023-01-22T18:03:58.344Z,35.28
2023-01-22T18:06:25.388Z,13.77
2023-01-22T18:08:52.559Z,15.88
2023-01-22T18:11:20.618Z,23.00
2023-01-22T18:13:47.821Z,17.58
2023-01-22T18:16:15.818Z,17.50
2023-01-22T18:18:43.297Z,24.83
2023-01-22T18:21:13.044Z,22.70
2023-01-22T18:23:40.037Z,17.77
2023-01-22T18:26:07.427Z,18.88
2023-01-22T18:28:34.949Z,20.98
2023-01-22T18:31:12.743Z,28.35
2023-01-22T18:33:40.322Z,36.35
2023-01-22T18:36:10.602Z,31.42
2023-01-22T18:38:37.498Z,22.65
2023-01-22T18:41:08.267Z,19.10
2023-01-22T18:43:35.311Z,20.92
2023-01-22T18:46:12.075Z,27.08
2023-01-22T18:48:39.780Z,20.30
2023-01-22T18:51:09.030Z,19.30
2023-01-22T18:53:36.173Z,16.30
2023-01-22T18:56:03.934Z,21.88
2023-01-22T18:58:32.323Z,16.92
2023-01-22T19:01:08.170Z,18.35
2023-01-22T19:03:36.184Z,22.30
2023-01-22T19:06:04.086Z,23.60
2023-01-22T19:08:30.919Z,20.08
2023-01-22T19:11:05.169Z,28.75
2023-01-22T19:13:35.144Z,24.27
2023-01-22T19:16:03.132Z,31.15
2023-01-22T19:18:29.995Z,29.40
2023-01-22T19:21:02.428Z,29.13
2023-01-22T19:23:29.264Z,34.33
2023-01-22T19:26:03.779Z,33.22
2023-01-22T19:28:30.587Z,38.05
2023-01-22T19:30:57.514Z,33.03
2023-01-22T19:33:27.785Z,27.35
2023-01-22T19:35:56.167Z,33.45
2023-01-22T19:38:23.294Z,31.15
2023-01-22T19:40:50.145Z,24.63
2023-01-22T19:43:16.963Z,22.75
2023-01-22T19:45:43.833Z,25.15
2023-01-22T19:48:10.867Z,29.27
2023-01-22T19:50:40.618Z,25.92
2023-01-22T19:53:08.243Z,26.05
2023-01-22T19:55:35.951Z,21.98
2023-01-22T19:58:05.929Z,25.55
2023-01-22T20:00:33.051Z,31.17
2023-01-22T20:03:01.339Z,26.63
2023-01-22T20:05:28.177Z,37.92
2023-01-22T20:07:56.192Z,31.52
2023-01-22T20:10:22.938Z,35.40
2023-01-22T20:12:50.419Z,23.38
2023-01-22T20:15:17.652Z,24.00
2023-01-22T20:17:44.778Z,21.77
2023-01-22T20:20:12.053Z,25.30
2023-01-22T20:22:38.986Z,32.47
2023-01-22T20:25:07.991Z,26.52
2023-01-22T20:27:36.294Z,24.02
2023-01-22T20:30:06.147Z,23.38
2023-01-22T20:32:33.083Z,37.72
2023-01-22T20:34:59.980Z,31.55
2023-01-22T20:37:27.107Z,30.50
2023-01-22T20:39:53.914Z,24.63
2023-01-22T20:42:20.801Z,23.45
2023-01-22T20:44:47.994Z,23.85
2023-01-22T20:47:14.876Z,24.60
2023-01-22T20:49:41.634Z,24.27
2023-01-22T20:52:08.652Z,16.65
2023-01-22T20:54:42.846Z,20.75
2023-01-22T20:57:18.319Z,26.40
2023-01-22T20:59:46.738Z,21.98
2023-01-22T21:02:14.189Z,19.17
2023-01-22T21:04:41.189Z,23.42
2023-01-22T21:07:08.141Z,19.25
2023-01-22T21:09:35.233Z,25.60
2023-01-22T21:12:02.223Z,20.20
2023-01-22T21:14:30.364Z,18.05
2023-01-22T21:16:57.071Z,19.63
2023-01-22T21:19:26.038Z,22.00
2023-01-22T21:21:52.912Z,15.63
2023-01-22T21:24:19.852Z,22.52
2023-01-22T21:26:49.603Z,24.13
2023-01-22T21:29:17.792Z,18.90
2023-01-22T21:31:45.159Z,16.80
2023-01-22T21:34:11.967Z,20.23
2023-01-22T21:36:40.031Z,20.15
2023-01-22T21:39:08.436Z,19.17
2023-01-22T21:41:36.831Z,24.92
2023-01-22T21:44:22.405Z,19.77
2023-01-22T21:46:49.377Z,15.73
2023-01-22T21:49:17.694Z,19.88
2023-01-22T21:51:49.719Z,24.73
2023-01-22T21:54:18.109Z,17.75
2023-01-22T21:56:45.036Z,19.70
2023-01-22T21:59:12.581Z,20.23
2023-01-22T22:01:40.686Z,20.27
2023-01-22T22:04:08.210Z,23.88
2023-01-22T22:06:35.614Z,33.20
2023-01-22T22:09:04.116Z,26.60
2023-01-22T22:11:31.068Z,23.67
2023-01-22T22:13:57.892Z,22.40
2023-01-22T22:16:26.202Z,22.65
2023-01-22T22:18:54.658Z,29.17
2023-01-22T22:21:22.361Z,34.38
2023-01-22T22:23:49.580Z,26.88
2023-01-22T22:26:16.803Z,26.65
2023-01-22T22:28:43.796Z,22.95
2023-01-22T22:31:14.769Z,22.33
2023-01-22T22:33:48.011Z,23.17
2023-01-22T22:36:15.663Z,24.52
2023-01-22T22:38:42.807Z,27.63
2023-01-22T22:41:14.079Z,25.95
2023-01-22T22:43:44.226Z,28.70
2023-01-22T22:46:17.721Z,27.05
2023-01-22T22:48:45.176Z,26.95
2023-01-22T22:51:13.653Z,30.13
2023-01-22T22:53:51.327Z,28.92
2023-01-22T22:56:18.228Z,31.10
2023-01-22T22:58:45.635Z,31.20
2023-01-22T23:01:15.689Z,31.05
2023-01-22T23:03:43.648Z,31.90
2023-01-22T23:06:12.363Z,55.42
2023-01-22T23:08:40.303Z,38.08
2023-01-22T23:11:08.409Z,34.75
2023-01-22T23:13:35.505Z,45.83
2023-01-22T23:16:02.963Z,31.40
2023-01-22T23:18:29.868Z,24.08
2023-01-22T23:20:57.645Z,34.55
2023-01-22T23:23:24.875Z,29.35
2023-01-22T23:25:51.774Z,29.20
2023-01-22T23:28:18.661Z,27.67
2023-01-22T23:30:45.587Z,29.08
2023-01-22T23:33:13.271Z,31.23
2023-01-22T23:35:40.154Z,28.55
2023-01-22T23:38:07.155Z,29.98
2023-01-22T23:40:34.390Z,37.03
2023-01-22T23:43:01.756Z,31.40
2023-01-22T23:45:28.985Z,24.77
2023-01-22T23:47:56.179Z,24.77
2023-01-22T23:50:23.325Z,24.60
2023-01-22T23:52:50.256Z,26.55
2023-01-22T23:55:17.546Z,28.58
2023-01-22T23:57:44.423Z,26.55
